sensor_id;sensor_type;location;lat;lon;timestamp;P1;durP1;ratioP1;P2;durP2;ratioP2
17524;SDS011;40431;52.198;9.902;2023-06-14T00:01:54;3.40;;;2.63;;
17524;SDS011;40431;52.198;9.902;2023-06-14T00:04:21;2.53;;;2.33;;
17524;SDS011;40431;52.198;9.902;2023-06-14T00:06:50;3.47;;;2.70;;
17524;SDS011;40431;52.198;9.902;2023-06-14T00:09:17;2.77;;;2.50;;
17524;SDS011;40431;52.198;9.902;2023-06-14T00:11:45;3.27;;;2.57;;
17524;SDS011;40431;52.198;9.902;2023-06-14T00:14:12;4.13;;;2.50;;
17524;SDS011;40431;52.198;9.902;2023-06-14T00:16:39;7.77;;;2.47;;
17524;SDS011;40431;52.198;9.902;2023-06-14T00:19:07;6.10;;;2.67;;
17524;SDS011;40431;52.198;9.902;2023-06-14T00:21:35;3.57;;;2.63;;
17524;SDS011;40431;52.198;9.902;2023-06-14T00:24:04;2.37;;;2.20;;
17524;SDS011;40431;52.198;9.902;2023-06-14T00:26:31;3.00;;;2.80;;
17524;SDS011;40431;52.198;9.902;2023-06-14T00:28:58;2.87;;;2.37;;
17524;SDS011;40431;52.198;9.902;2023-06-14T00:31:25;3.17;;;2.80;;
17524;SDS011;40431;52.198;9.902;2023-06-14T00:33:51;2.67;;;2.37;;
17524;SDS011;40431;52.198;9.902;2023-06-14T00:36:18;4.00;;;3.10;;
17524;SDS011;40431;52.198;9.902;2023-06-14T00:38:44;3.83;;;2.60;;
17524;SDS011;40431;52.198;9.902;2023-06-14T00:41:11;3.30;;;2.70;;
17524;SDS011;40431;52.198;9.902;2023-06-14T00:43:37;3.30;;;2.87;;
17524;SDS011;40431;52.198;9.902;2023-06-14T00:46:05;2.97;;;2.60;;
17524;SDS011;40431;52.198;9.902;2023-06-14T00:48:31;2.67;;;2.47;;
17524;SDS011;40431;52.198;9.902;2023-06-14T00:50:59;2.90;;;2.70;;
17524;SDS011;40431;52.198;9.902;2023-06-14T00:53:28;3.20;;;2.90;;
17524;SDS011;40431;52.198;9.902;2023-06-14T00:55:56;2.67;;;2.47;;
17524;SDS011;40431;52.198;9.902;2023-06-14T00:58:22;5.83;;;2.83;;
17524;SDS011;40431;52.198;9.902;2023-06-14T01:00:49;2.80;;;2.60;;
17524;SDS011;40431;52.198;9.902;2023-06-14T01:03:17;2.60;;;2.40;;
17524;SDS011;40431;52.198;9.902;2023-06-14T01:05:47;3.10;;;2.60;;
17524;SDS011;40431;52.198;9.902;2023-06-14T01:08:18;2.30;;;2.20;;
17524;SDS011;40431;52.198;9.902;2023-06-14T01:10:53;2.77;;;2.13;;
17524;SDS011;40431;52.198;9.902;2023-06-14T01:13:27;3.80;;;3.00;;
17524;SDS011;40431;52.198;9.902;2023-06-14T01:15:57;8.50;;;2.93;;
17524;SDS011;40431;52.198;9.902;2023-06-14T01:18:26;3.07;;;2.73;;
17524;SDS011;40431;52.198;9.902;2023-06-14T01:20:54;4.33;;;2.73;;
17524;SDS011;40431;52.198;9.902;2023-06-14T01:23:23;2.80;;;2.60;;
17524;SDS011;40431;52.198;9.902;2023-06-14T01:25:50;4.43;;;3.03;;
17524;SDS011;40431;52.198;9.902;2023-06-14T01:28:18;3.93;;;3.10;;
17524;SDS011;40431;52.198;9.902;2023-06-14T01:30:46;3.20;;;3.00;;
17524;SDS011;40431;52.198;9.902;2023-06-14T01:33:15;3.90;;;2.23;;
17524;SDS011;40431;52.198;9.902;2023-06-14T01:35:44;2.77;;;2.50;;
17524;SDS011;40431;52.198;9.902;2023-06-14T01:38:13;3.03;;;2.50;;
17524;SDS011;40431;52.198;9.902;2023-06-14T01:40:41;2.70;;;2.50;;
17524;SDS011;40431;52.198;9.902;2023-06-14T01:43:10;3.60;;;2.80;;
17524;SDS011;40431;52.198;9.902;2023-06-14T01:45:39;4.47;;;2.73;;
17524;SDS011;40431;52.198;9.902;2023-06-14T01:48:07;4.87;;;3.40;;
17524;SDS011;40431;52.198;9.902;2023-06-14T01:50:34;2.77;;;2.53;;
17524;SDS011;40431;52.198;9.902;2023-06-14T01:53:01;3.10;;;2.90;;
17524;SDS011;40431;52.198;9.902;2023-06-14T01:55:28;8.93;;;2.80;;
17524;SDS011;40431;52.198;9.902;2023-06-14T01:58:03;4.27;;;3.20;;
17524;SDS011;40431;52.198;9.902;2023-06-14T02:00:30;3.70;;;2.57;;
17524;SDS011;40431;52.198;9.902;2023-06-14T02:02:57;6.13;;;3.70;;
17524;SDS011;40431;52.198;9.902;2023-06-14T02:05:23;3.43;;;3.13;;
17524;SDS011;40431;52.198;9.902;2023-06-14T02:07:50;3.70;;;3.17;;
17524;SDS011;40431;52.198;9.902;2023-06-14T02:10:16;3.60;;;3.30;;
17524;SDS011;40431;52.198;9.902;2023-06-14T02:12:43;3.10;;;2.90;;
17524;SDS011;40431;52.198;9.902;2023-06-14T02:15:11;4.80;;;3.00;;
17524;SDS011;40431;52.198;9.902;2023-06-14T02:17:41;3.73;;;2.40;;
17524;SDS011;40431;52.198;9.902;2023-06-14T02:20:08;4.63;;;3.43;;
17524;SDS011;40431;52.198;9.902;2023-06-14T02:22:35;3.33;;;2.80;;
17524;SDS011;40431;52.198;9.902;2023-06-14T02:25:01;3.50;;;3.20;;
17524;SDS011;40431;52.198;9.902;2023-06-14T02:27:28;2.80;;;2.60;;
17524;SDS011;40431;52.198;9.902;2023-06-14T02:29:54;3.30;;;3.10;;
17524;SDS011;40431;52.198;9.902;2023-06-14T02:32:22;4.37;;;2.77;;
17524;SDS011;40431;52.198;9.902;2023-06-14T02:34:49;3.43;;;3.13;;
17524;SDS011;40431;52.198;9.902;2023-06-14T02:37:16;4.23;;;3.63;;
17524;SDS011;40431;52.198;9.902;2023-06-14T02:39:42;3.63;;;3.30;;
17524;SDS011;40431;52.198;9.902;2023-06-14T02:42:09;4.10;;;3.40;;
17524;SDS011;40431;52.198;9.902;2023-06-14T02:44:36;3.10;;;2.77;;
17524;SDS011;40431;52.198;9.902;2023-06-14T02:47:02;3.23;;;2.70;;
17524;SDS011;40431;52.198;9.902;2023-06-14T02:49:31;3.70;;;3.40;;
17524;SDS011;40431;52.198;9.902;2023-06-14T02:51:59;3.90;;;3.30;;
17524;SDS011;40431;52.198;9.902;2023-06-14T02:54:25;3.43;;;3.23;;
17524;SDS011;40431;52.198;9.902;2023-06-14T02:56:52;3.87;;;3.47;;
17524;SDS011;40431;52.198;9.902;2023-06-14T02:59:18;3.30;;;3.10;;
17524;SDS011;40431;52.198;9.902;2023-06-14T03:01:46;5.27;;;3.53;;
17524;SDS011;40431;52.198;9.902;2023-06-14T03:04:12;4.67;;;3.47;;
17524;SDS011;40431;52.198;9.902;2023-06-14T03:06:40;5.30;;;3.57;;
17524;SDS011;40431;52.198;9.902;2023-06-14T03:09:09;3.97;;;3.13;;
17524;SDS011;40431;52.198;9.902;2023-06-14T03:11:35;3.20;;;3.00;;
17524;SDS011;40431;52.198;9.902;2023-06-14T03:14:02;3.37;;;3.00;;
17524;SDS011;40431;52.198;9.902;2023-06-14T03:16:29;4.27;;;3.97;;
17524;SDS011;40431;52.198;9.902;2023-06-14T03:18:56;3.70;;;3.20;;
17524;SDS011;40431;52.198;9.902;2023-06-14T03:21:23;3.63;;;3.00;;
17524;SDS011;40431;52.198;9.902;2023-06-14T03:23:51;3.50;;;3.10;;
17524;SDS011;40431;52.198;9.902;2023-06-14T03:26:18;3.70;;;3.03;;
17524;SDS011;40431;52.198;9.902;2023-06-14T03:28:44;3.50;;;3.20;;
17524;SDS011;40431;52.198;9.902;2023-06-14T03:31:11;4.20;;;3.47;;
17524;SDS011;40431;52.198;9.902;2023-06-14T03:33:37;3.27;;;3.07;;
17524;SDS011;40431;52.198;9.902;2023-06-14T03:36:04;5.47;;;3.63;;
17524;SDS011;40431;52.198;9.902;2023-06-14T03:38:31;4.27;;;3.37;;
17524;SDS011;40431;52.198;9.902;2023-06-14T03:40:58;5.03;;;3.43;;
17524;SDS011;40431;52.198;9.902;2023-06-14T03:43:25;5.80;;;3.90;;
17524;SDS011;40431;52.198;9.902;2023-06-14T03:45:51;3.97;;;3.70;;
17524;SDS011;40431;52.198;9.902;2023-06-14T03:48:18;3.73;;;3.43;;
17524;SDS011;40431;52.198;9.902;2023-06-14T03:50:44;3.73;;;3.40;;
17524;SDS011;40431;52.198;9.902;2023-06-14T03:53:10;4.50;;;3.60;;
17524;SDS011;40431;52.198;9.902;2023-06-14T03:55:37;3.13;;;2.83;;
17524;SDS011;40431;52.198;9.902;2023-06-14T03:58:05;4.30;;;3.90;;
17524;SDS011;40431;52.198;9.902;2023-06-14T04:00:32;4.33;;;3.03;;
17524;SDS011;40431;52.198;9.902;2023-06-14T04:02:58;3.57;;;3.27;;
17524;SDS011;40431;52.198;9.902;2023-06-14T04:05:25;3.93;;;2.80;;
17524;SDS011;40431;52.198;9.902;2023-06-14T04:07:52;3.40;;;3.10;;
17524;SDS011;40431;52.198;9.902;2023-06-14T04:10:21;3.20;;;2.90;;
17524;SDS011;40431;52.198;9.902;2023-06-14T04:12:47;4.97;;;3.10;;
17524;SDS011;40431;52.198;9.902;2023-06-14T04:15:15;4.17;;;3.70;;
17524;SDS011;40431;52.198;9.902;2023-06-14T04:17:42;2.90;;;2.67;;
17524;SDS011;40431;52.198;9.902;2023-06-14T04:20:08;3.17;;;2.97;;
17524;SDS011;40431;52.198;9.902;2023-06-14T04:22:35;4.10;;;2.60;;
17524;SDS011;40431;52.198;9.902;2023-06-14T04:25:02;3.77;;;2.70;;
17524;SDS011;40431;52.198;9.902;2023-06-14T04:27:31;3.90;;;3.10;;
17524;SDS011;40431;52.198;9.902;2023-06-14T04:29:59;3.20;;;2.90;;
17524;SDS011;40431;52.198;9.902;2023-06-14T04:32:28;4.07;;;2.77;;
17524;SDS011;40431;52.198;9.902;2023-06-14T04:34:58;4.53;;;2.90;;
17524;SDS011;40431;52.198;9.902;2023-06-14T04:37:27;3.73;;;2.80;;
17524;SDS011;40431;52.198;9.902;2023-06-14T04:39:54;3.77;;;2.90;;
17524;SDS011;40431;52.198;9.902;2023-06-14T04:42:21;6.13;;;2.80;;
17524;SDS011;40431;52.198;9.902;2023-06-14T04:44:50;2.73;;;2.40;;
17524;SDS011;40431;52.198;9.902;2023-06-14T04:47:17;4.00;;;2.30;;
17524;SDS011;40431;52.198;9.902;2023-06-14T04:49:44;2.97;;;2.77;;
17524;SDS011;40431;52.198;9.902;2023-06-14T04:52:11;3.00;;;2.80;;
17524;SDS011;40431;52.198;9.902;2023-06-14T04:54:38;2.77;;;2.33;;
17524;SDS011;40431;52.198;9.902;2023-06-14T04:57:06;2.73;;;2.30;;
17524;SDS011;40431;52.198;9.902;2023-06-14T04:59:33;2.90;;;2.47;;
17524;SDS011;40431;52.198;9.902;2023-06-14T05:02:00;2.70;;;2.50;;
17524;SDS011;40431;52.198;9.902;2023-06-14T05:04:27;3.57;;;2.50;;
17524;SDS011;40431;52.198;9.902;2023-06-14T05:06:55;3.70;;;2.67;;
17524;SDS011;40431;52.198;9.902;2023-06-14T05:09:21;3.10;;;2.47;;
17524;SDS011;40431;52.198;9.902;2023-06-14T05:11:48;3.37;;;2.43;;
17524;SDS011;40431;52.198;9.902;2023-06-14T05:14:15;2.50;;;2.30;;
17524;SDS011;40431;52.198;9.902;2023-06-14T05:16:42;3.93;;;2.40;;
17524;SDS011;40431;52.198;9.902;2023-06-14T05:19:08;2.63;;;2.43;;
17524;SDS011;40431;52.198;9.902;2023-06-14T05:21:35;2.70;;;1.90;;
17524;SDS011;40431;52.198;9.902;2023-06-14T05:24:03;2.33;;;2.20;;
17524;SDS011;40431;52.198;9.902;2023-06-14T05:26:30;2.80;;;2.40;;
17524;SDS011;40431;52.198;9.902;2023-06-14T05:28:57;2.33;;;2.10;;
17524;SDS011;40431;52.198;9.902;2023-06-14T05:31:25;3.50;;;2.27;;
17524;SDS011;40431;52.198;9.902;2023-06-14T05:33:52;2.43;;;1.90;;
17524;SDS011;40431;52.198;9.902;2023-06-14T05:36:19;2.53;;;2.33;;
17524;SDS011;40431;52.198;9.902;2023-06-14T05:38:46;2.07;;;1.97;;
17524;SDS011;40431;52.198;9.902;2023-06-14T05:41:14;2.27;;;2.07;;
17524;SDS011;40431;52.198;9.902;2023-06-14T05:43:41;3.70;;;2.50;;
17524;SDS011;40431;52.198;9.902;2023-06-14T05:46:07;3.33;;;1.90;;
17524;SDS011;40431;52.198;9.902;2023-06-14T05:48:33;2.47;;;1.90;;
17524;SDS011;40431;52.198;9.902;2023-06-14T05:51:00;2.80;;;2.27;;
17524;SDS011;40431;52.198;9.902;2023-06-14T05:53:26;2.90;;;2.20;;
17524;SDS011;40431;52.198;9.902;2023-06-14T05:55:52;2.03;;;1.90;;
17524;SDS011;40431;52.198;9.902;2023-06-14T05:58:21;3.17;;;2.37;;
17524;SDS011;40431;52.198;9.902;2023-06-14T06:00:47;3.13;;;2.40;;
17524;SDS011;40431;52.198;9.902;2023-06-14T06:03:14;2.97;;;2.73;;
17524;SDS011;40431;52.198;9.902;2023-06-14T06:05:40;3.63;;;2.80;;
17524;SDS011;40431;52.198;9.902;2023-06-14T06:08:07;3.30;;;2.93;;
17524;SDS011;40431;52.198;9.902;2023-06-14T06:10:33;2.73;;;2.43;;
17524;SDS011;40431;52.198;9.902;2023-06-14T06:12:59;3.50;;;2.57;;
17524;SDS011;40431;52.198;9.902;2023-06-14T06:15:27;4.13;;;2.90;;
17524;SDS011;40431;52.198;9.902;2023-06-14T06:17:53;3.93;;;2.93;;
17524;SDS011;40431;52.198;9.902;2023-06-14T06:20:20;5.77;;;2.53;;
17524;SDS011;40431;52.198;9.902;2023-06-14T06:22:52;3.33;;;3.03;;
17524;SDS011;40431;52.198;9.902;2023-06-14T06:25:19;3.50;;;3.30;;
17524;SDS011;40431;52.198;9.902;2023-06-14T06:27:45;3.23;;;3.03;;
17524;SDS011;40431;52.198;9.902;2023-06-14T06:30:12;3.20;;;3.00;;
17524;SDS011;40431;52.198;9.902;2023-06-14T06:32:40;3.27;;;2.97;;
17524;SDS011;40431;52.198;9.902;2023-06-14T06:35:07;5.70;;;3.07;;
17524;SDS011;40431;52.198;9.902;2023-06-14T06:37:35;2.70;;;2.50;;
17524;SDS011;40431;52.198;9.902;2023-06-14T06:40:02;3.97;;;2.67;;
17524;SDS011;40431;52.198;9.902;2023-06-14T06:42:30;3.20;;;2.90;;
17524;SDS011;40431;52.198;9.902;2023-06-14T06:44:57;3.97;;;2.77;;
17524;SDS011;40431;52.198;9.902;2023-06-14T06:47:24;4.30;;;2.83;;
17524;SDS011;40431;52.198;9.902;2023-06-14T06:49:52;6.20;;;2.80;;
17524;SDS011;40431;52.198;9.902;2023-06-14T06:52:18;3.33;;;2.70;;
17524;SDS011;40431;52.198;9.902;2023-06-14T06:54:45;5.07;;;2.73;;
17524;SDS011;40431;52.198;9.902;2023-06-14T06:57:11;4.93;;;2.07;;
17524;SDS011;40431;52.198;9.902;2023-06-14T06:59:38;2.87;;;2.57;;
17524;SDS011;40431;52.198;9.902;2023-06-14T07:02:05;2.53;;;2.33;;
17524;SDS011;40431;52.198;9.902;2023-06-14T07:04:31;3.83;;;2.30;;
17524;SDS011;40431;52.198;9.902;2023-06-14T07:06:59;3.27;;;2.97;;
17524;SDS011;40431;52.198;9.902;2023-06-14T07:09:26;2.53;;;2.33;;
17524;SDS011;40431;52.198;9.902;2023-06-14T07:11:52;2.73;;;2.50;;
17524;SDS011;40431;52.198;9.902;2023-06-14T07:14:18;2.00;;;1.87;;
17524;SDS011;40431;52.198;9.902;2023-06-14T07:16:48;2.57;;;2.37;;
17524;SDS011;40431;52.198;9.902;2023-06-14T07:19:14;2.93;;;2.43;;
17524;SDS011;40431;52.198;9.902;2023-06-14T07:21:41;2.00;;;1.90;;
17524;SDS011;40431;52.198;9.902;2023-06-14T07:24:08;2.30;;;1.60;;
17524;SDS011;40431;52.198;9.902;2023-06-14T07:26:35;2.23;;;2.00;;
17524;SDS011;40431;52.198;9.902;2023-06-14T07:29:01;2.30;;;2.03;;
17524;SDS011;40431;52.198;9.902;2023-06-14T07:31:28;3.33;;;2.20;;
17524;SDS011;40431;52.198;9.902;2023-06-14T07:33:54;2.70;;;1.97;;
17524;SDS011;40431;52.198;9.902;2023-06-14T07:36:21;2.23;;;2.00;;
17524;SDS011;40431;52.198;9.902;2023-06-14T07:38:48;2.47;;;2.10;;
17524;SDS011;40431;52.198;9.902;2023-06-14T07:41:15;2.43;;;2.23;;
17524;SDS011;40431;52.198;9.902;2023-06-14T07:43:42;2.43;;;2.23;;
17524;SDS011;40431;52.198;9.902;2023-06-14T07:46:08;2.70;;;2.10;;
17524;SDS011;40431;52.198;9.902;2023-06-14T07:48:35;3.47;;;2.00;;
17524;SDS011;40431;52.198;9.902;2023-06-14T07:51:01;2.40;;;1.80;;
17524;SDS011;40431;52.198;9.902;2023-06-14T07:53:28;3.00;;;2.00;;
17524;SDS011;40431;52.198;9.902;2023-06-14T07:55:55;2.30;;;2.10;;
17524;SDS011;40431;52.198;9.902;2023-06-14T07:58:23;2.20;;;2.00;;
17524;SDS011;40431;52.198;9.902;2023-06-14T08:00:49;3.50;;;2.30;;
17524;SDS011;40431;52.198;9.902;2023-06-14T08:03:16;2.67;;;1.90;;
17524;SDS011;40431;52.198;9.902;2023-06-14T08:05:43;4.60;;;2.30;;
17524;SDS011;40431;52.198;9.902;2023-06-14T08:08:09;3.73;;;2.07;;
17524;SDS011;40431;52.198;9.902;2023-06-14T08:10:35;2.90;;;2.70;;
17524;SDS011;40431;52.198;9.902;2023-06-14T08:13:02;2.33;;;1.97;;
17524;SDS011;40431;52.198;9.902;2023-06-14T08:15:29;1.93;;;1.80;;
17524;SDS011;40431;52.198;9.902;2023-06-14T08:17:56;2.43;;;2.20;;
17524;SDS011;40431;52.198;9.902;2023-06-14T08:20:24;3.67;;;1.90;;
17524;SDS011;40431;52.198;9.902;2023-06-14T08:22:50;2.13;;;1.93;;
17524;SDS011;40431;52.198;9.902;2023-06-14T08:25:20;3.20;;;1.80;;
17524;SDS011;40431;52.198;9.902;2023-06-14T08:27:46;2.80;;;2.03;;
17524;SDS011;40431;52.198;9.902;2023-06-14T08:30:13;2.33;;;2.17;;
17524;SDS011;40431;52.198;9.902;2023-06-14T08:32:43;2.20;;;1.93;;
17524;SDS011;40431;52.198;9.902;2023-06-14T08:35:10;3.27;;;1.77;;
17524;SDS011;40431;52.198;9.902;2023-06-14T08:37:38;2.00;;;1.60;;
17524;SDS011;40431;52.198;9.902;2023-06-14T08:40:05;3.77;;;2.27;;
17524;SDS011;40431;52.198;9.902;2023-06-14T08:42:39;2.00;;;1.90;;
17524;SDS011;40431;52.198;9.902;2023-06-14T08:45:07;1.90;;;1.80;;
17524;SDS011;40431;52.198;9.902;2023-06-14T08:47:35;1.60;;;1.50;;
17524;SDS011;40431;52.198;9.902;2023-06-14T08:50:03;1.80;;;1.70;;
17524;SDS011;40431;52.198;9.902;2023-06-14T08:52:31;3.30;;;2.00;;
17524;SDS011;40431;52.198;9.902;2023-06-14T08:55:05;1.70;;;1.60;;
17524;SDS011;40431;52.198;9.902;2023-06-14T08:57:33;1.67;;;1.57;;
17524;SDS011;40431;52.198;9.902;2023-06-14T09:00:03;2.13;;;1.57;;
17524;SDS011;40431;52.198;9.902;2023-06-14T09:02:36;2.77;;;1.70;;
17524;SDS011;40431;52.198;9.902;2023-06-14T09:05:04;2.00;;;1.90;;
17524;SDS011;40431;52.198;9.902;2023-06-14T09:07:31;1.77;;;1.53;;
17524;SDS011;40431;52.198;9.902;2023-06-14T09:10:05;2.33;;;1.70;;
17524;SDS011;40431;52.198;9.902;2023-06-14T09:12:33;2.53;;;1.80;;
17524;SDS011;40431;52.198;9.902;2023-06-14T09:14:59;1.40;;;1.30;;
17524;SDS011;40431;52.198;9.902;2023-06-14T09:17:31;3.10;;;1.67;;
17524;SDS011;40431;52.198;9.902;2023-06-14T09:19:58;1.50;;;1.40;;
17524;SDS011;40431;52.198;9.902;2023-06-14T09:22:26;1.83;;;1.60;;
17524;SDS011;40431;52.198;9.902;2023-06-14T09:24:55;1.40;;;1.30;;
17524;SDS011;40431;52.198;9.902;2023-06-14T09:27:22;2.77;;;1.70;;
17524;SDS011;40431;52.198;9.902;2023-06-14T09:29:48;1.83;;;1.73;;
17524;SDS011;40431;52.198;9.902;2023-06-14T09:32:14;1.80;;;1.70;;
17524;SDS011;40431;52.198;9.902;2023-06-14T09:34:41;2.00;;;1.80;;
17524;SDS011;40431;52.198;9.902;2023-06-14T09:37:08;2.83;;;1.70;;
17524;SDS011;40431;52.198;9.902;2023-06-14T09:39:36;1.67;;;1.57;;
17524;SDS011;40431;52.198;9.902;2023-06-14T09:42:16;1.63;;;1.53;;
17524;SDS011;40431;52.198;9.902;2023-06-14T09:44:44;1.90;;;1.60;;
17524;SDS011;40431;52.198;9.902;2023-06-14T09:47:12;1.60;;;1.50;;
17524;SDS011;40431;52.198;9.902;2023-06-14T09:49:40;1.50;;;1.40;;
17524;SDS011;40431;52.198;9.902;2023-06-14T09:52:07;14.00;;;2.10;;
17524;SDS011;40431;52.198;9.902;2023-06-14T09:54:39;1.90;;;1.80;;
17524;SDS011;40431;52.198;9.902;2023-06-14T09:57:07;1.60;;;1.50;;
17524;SDS011;40431;52.198;9.902;2023-06-14T09:59:36;2.43;;;1.67;;
17524;SDS011;40431;52.198;9.902;2023-06-14T10:02:07;4.43;;;1.40;;
17524;SDS011;40431;52.198;9.902;2023-06-14T10:04:37;1.33;;;1.30;;
17524;SDS011;40431;52.198;9.902;2023-06-14T10:07:07;6.87;;;1.60;;
17524;SDS011;40431;52.198;9.902;2023-06-14T10:09:34;1.40;;;1.30;;
17524;SDS011;40431;52.198;9.902;2023-06-14T10:12:02;1.70;;;1.60;;
17524;SDS011;40431;52.198;9.902;2023-06-14T10:14:29;1.77;;;1.67;;
17524;SDS011;40431;52.198;9.902;2023-06-14T10:16:59;1.50;;;1.40;;
17524;SDS011;40431;52.198;9.902;2023-06-14T10:19:32;1.60;;;1.50;;
17524;SDS011;40431;52.198;9.902;2023-06-14T10:22:04;1.53;;;1.43;;
17524;SDS011;40431;52.198;9.902;2023-06-14T10:24:35;2.30;;;1.53;;
17524;SDS011;40431;52.198;9.902;2023-06-14T10:27:07;1.47;;;1.37;;
17524;SDS011;40431;52.198;9.902;2023-06-14T10:29:36;2.00;;;1.43;;
17524;SDS011;40431;52.198;9.902;2023-06-14T10:32:28;2.13;;;1.70;;
17524;SDS011;40431;52.198;9.902;2023-06-14T10:34:55;2.63;;;1.90;;
17524;SDS011;40431;52.198;9.902;2023-06-14T10:37:22;1.43;;;1.20;;
17524;SDS011;40431;52.198;9.902;2023-06-14T10:39:49;1.57;;;1.47;;
17524;SDS011;40431;52.198;9.902;2023-06-14T10:42:17;1.97;;;1.50;;
17524;SDS011;40431;52.198;9.902;2023-06-14T10:44:45;2.67;;;1.30;;
17524;SDS011;40431;52.198;9.902;2023-06-14T10:49:57;1.87;;;1.50;;
17524;SDS011;40431;52.198;9.902;2023-06-14T10:52:32;1.80;;;1.63;;
17524;SDS011;40431;52.198;9.902;2023-06-14T10:55:07;3.87;;;1.70;;
17524;SDS011;40431;52.198;9.902;2023-06-14T10:57:37;1.70;;;1.60;;
17524;SDS011;40431;52.198;9.902;2023-06-14T11:00:05;1.63;;;1.53;;
17524;SDS011;40431;52.198;9.902;2023-06-14T11:05:45;1.73;;;1.60;;
17524;SDS011;40431;52.198;9.902;2023-06-14T11:11:12;1.80;;;1.70;;
17524;SDS011;40431;52.198;9.902;2023-06-14T11:13:41;1.70;;;1.60;;
17524;SDS011;40431;52.198;9.902;2023-06-14T11:16:12;4.33;;;2.00;;
17524;SDS011;40431;52.198;9.902;2023-06-14T11:18:40;2.50;;;1.80;;
17524;SDS011;40431;52.198;9.902;2023-06-14T11:21:06;2.57;;;2.10;;
17524;SDS011;40431;52.198;9.902;2023-06-14T11:23:33;3.50;;;2.07;;
17524;SDS011;40431;52.198;9.902;2023-06-14T11:26:00;2.83;;;1.70;;
17524;SDS011;40431;52.198;9.902;2023-06-14T11:28:35;2.43;;;2.00;;
17524;SDS011;40431;52.198;9.902;2023-06-14T11:31:03;2.30;;;2.10;;
17524;SDS011;40431;52.198;9.902;2023-06-14T11:33:30;3.77;;;2.03;;
17524;SDS011;40431;52.198;9.902;2023-06-14T11:35:56;2.70;;;2.00;;
17524;SDS011;40431;52.198;9.902;2023-06-14T11:38:24;2.17;;;1.97;;
17524;SDS011;40431;52.198;9.902;2023-06-14T11:40:51;2.43;;;2.23;;
17524;SDS011;40431;52.198;9.902;2023-06-14T11:43:18;3.83;;;1.90;;
17524;SDS011;40431;52.198;9.902;2023-06-14T11:45:47;1.97;;;1.77;;
17524;SDS011;40431;52.198;9.902;2023-06-14T11:48:15;2.37;;;1.60;;
17524;SDS011;40431;52.198;9.902;2023-06-14T11:50:42;3.13;;;2.00;;
17524;SDS011;40431;52.198;9.902;2023-06-14T11:53:08;3.10;;;1.90;;
17524;SDS011;40431;52.198;9.902;2023-06-14T11:55:35;3.20;;;1.90;;
17524;SDS011;40431;52.198;9.902;2023-06-14T11:58:03;2.10;;;1.90;;
17524;SDS011;40431;52.198;9.902;2023-06-14T12:00:29;6.77;;;1.87;;
17524;SDS011;40431;52.198;9.902;2023-06-14T12:02:56;2.30;;;1.80;;
17524;SDS011;40431;52.198;9.902;2023-06-14T12:05:24;1.90;;;1.70;;
17524;SDS011;40431;52.198;9.902;2023-06-14T12:07:57;1.97;;;1.87;;
17524;SDS011;40431;52.198;9.902;2023-06-14T12:10:24;5.43;;;2.17;;
17524;SDS011;40431;52.198;9.902;2023-06-14T12:12:55;2.13;;;2.00;;
17524;SDS011;40431;52.198;9.902;2023-06-14T12:15:23;2.77;;;1.80;;
17524;SDS011;40431;52.198;9.902;2023-06-14T12:17:50;2.10;;;1.57;;
17524;SDS011;40431;52.198;9.902;2023-06-14T12:20:17;2.33;;;1.70;;
17524;SDS011;40431;52.198;9.902;2023-06-14T12:22:50;3.20;;;2.00;;
17524;SDS011;40431;52.198;9.902;2023-06-14T12:25:22;2.73;;;2.43;;
17524;SDS011;40431;52.198;9.902;2023-06-14T12:27:52;3.00;;;1.87;;
17524;SDS011;40431;52.198;9.902;2023-06-14T12:30:19;2.20;;;2.00;;
17524;SDS011;40431;52.198;9.902;2023-06-14T12:32:45;4.70;;;1.90;;
17524;SDS011;40431;52.198;9.902;2023-06-14T12:35:11;3.33;;;2.50;;
17524;SDS011;40431;52.198;9.902;2023-06-14T12:37:38;2.70;;;1.90;;
17524;SDS011;40431;52.198;9.902;2023-06-14T12:40:06;2.83;;;2.47;;
17524;SDS011;40431;52.198;9.902;2023-06-14T12:42:33;2.93;;;1.87;;
17524;SDS011;40431;52.198;9.902;2023-06-14T12:45:00;4.20;;;2.37;;
17524;SDS011;40431;52.198;9.902;2023-06-14T12:47:28;2.90;;;2.10;;
17524;SDS011;40431;52.198;9.902;2023-06-14T12:49:54;2.77;;;2.40;;
17524;SDS011;40431;52.198;9.902;2023-06-14T12:52:21;2.90;;;2.30;;
17524;SDS011;40431;52.198;9.902;2023-06-14T12:54:47;3.03;;;2.33;;
17524;SDS011;40431;52.198;9.902;2023-06-14T12:57:15;2.10;;;2.00;;
17524;SDS011;40431;52.198;9.902;2023-06-14T12:59:41;6.13;;;1.87;;
17524;SDS011;40431;52.198;9.902;2023-06-14T13:02:12;2.27;;;2.00;;
17524;SDS011;40431;52.198;9.902;2023-06-14T13:04:39;2.40;;;2.17;;
17524;SDS011;40431;52.198;9.902;2023-06-14T13:07:05;3.47;;;2.53;;
17524;SDS011;40431;52.198;9.902;2023-06-14T13:09:32;3.20;;;2.43;;
17524;SDS011;40431;52.198;9.902;2023-06-14T13:11:58;4.17;;;2.50;;
17524;SDS011;40431;52.198;9.902;2023-06-14T13:14:26;2.97;;;2.47;;
17524;SDS011;40431;52.198;9.902;2023-06-14T13:16:52;3.93;;;2.20;;
17524;SDS011;40431;52.198;9.902;2023-06-14T13:19:20;4.07;;;2.57;;
17524;SDS011;40431;52.198;9.902;2023-06-14T13:21:47;2.93;;;2.50;;
17524;SDS011;40431;52.198;9.902;2023-06-14T13:24:14;9.63;;;2.63;;
17524;SDS011;40431;52.198;9.902;2023-06-14T13:26:41;3.80;;;2.40;;
17524;SDS011;40431;52.198;9.902;2023-06-14T13:29:07;2.90;;;2.40;;
17524;SDS011;40431;52.198;9.902;2023-06-14T13:31:35;3.83;;;2.77;;
17524;SDS011;40431;52.198;9.902;2023-06-14T13:34:01;2.90;;;2.30;;
17524;SDS011;40431;52.198;9.902;2023-06-14T13:36:28;3.80;;;2.57;;
17524;SDS011;40431;52.198;9.902;2023-06-14T13:38:55;3.53;;;2.80;;
17524;SDS011;40431;52.198;9.902;2023-06-14T13:41:23;4.03;;;2.80;;
17524;SDS011;40431;52.198;9.902;2023-06-14T13:43:56;3.53;;;2.50;;
17524;SDS011;40431;52.198;9.902;2023-06-14T13:46:22;4.20;;;2.87;;
17524;SDS011;40431;52.198;9.902;2023-06-14T13:48:50;5.10;;;2.33;;
17524;SDS011;40431;52.198;9.902;2023-06-14T13:51:17;6.37;;;2.33;;
17524;SDS011;40431;52.198;9.902;2023-06-14T13:53:45;2.90;;;2.50;;
17524;SDS011;40431;52.198;9.902;2023-06-14T13:56:12;3.67;;;2.83;;
17524;SDS011;40431;52.198;9.902;2023-06-14T13:58:38;4.17;;;2.20;;
17524;SDS011;40431;52.198;9.902;2023-06-14T14:01:04;3.53;;;2.47;;
17524;SDS011;40431;52.198;9.902;2023-06-14T14:03:31;8.23;;;2.50;;
17524;SDS011;40431;52.198;9.902;2023-06-14T14:05:59;4.47;;;2.37;;
17524;SDS011;40431;52.198;9.902;2023-06-14T14:08:26;8.73;;;2.67;;
17524;SDS011;40431;52.198;9.902;2023-06-14T14:10:53;3.33;;;2.50;;
17524;SDS011;40431;52.198;9.902;2023-06-14T14:13:19;5.23;;;2.77;;
17524;SDS011;40431;52.198;9.902;2023-06-14T14:15:46;2.83;;;2.63;;
17524;SDS011;40431;52.198;9.902;2023-06-14T14:18:14;2.50;;;2.30;;
17524;SDS011;40431;52.198;9.902;2023-06-14T14:20:40;2.83;;;2.30;;
17524;SDS011;40431;52.198;9.902;2023-06-14T14:23:08;6.13;;;3.00;;
17524;SDS011;40431;52.198;9.902;2023-06-14T14:25:34;7.00;;;2.80;;
17524;SDS011;40431;52.198;9.902;2023-06-14T14:28:00;2.50;;;2.30;;
17524;SDS011;40431;52.198;9.902;2023-06-14T14:30:27;2.30;;;2.07;;
17524;SDS011;40431;52.198;9.902;2023-06-14T14:32:54;4.80;;;2.57;;
17524;SDS011;40431;52.198;9.902;2023-06-14T14:35:20;2.63;;;2.43;;
17524;SDS011;40431;52.198;9.902;2023-06-14T14:37:48;3.27;;;2.53;;
17524;SDS011;40431;52.198;9.902;2023-06-14T14:40:16;3.40;;;2.30;;
17524;SDS011;40431;52.198;9.902;2023-06-14T14:42:42;3.20;;;2.70;;
17524;SDS011;40431;52.198;9.902;2023-06-14T14:45:09;2.80;;;2.60;;
17524;SDS011;40431;52.198;9.902;2023-06-14T14:47:35;3.00;;;2.23;;
17524;SDS011;40431;52.198;9.902;2023-06-14T14:50:02;4.10;;;2.20;;
17524;SDS011;40431;52.198;9.902;2023-06-14T14:52:28;4.53;;;2.63;;
17524;SDS011;40431;52.198;9.902;2023-06-14T14:54:55;3.03;;;2.50;;
17524;SDS011;40431;52.198;9.902;2023-06-14T14:57:22;2.93;;;2.63;;
17524;SDS011;40431;52.198;9.902;2023-06-14T14:59:49;2.53;;;2.33;;